Time;durP1;ratioP1;P1;durP2;ratioP2;P2;SDS_P1;SDS_P2;PMS_P1;PMS_P2;Temp;Humidity;BMP_temperature;BMP_pressure;BME280_temperature;BME280_humidity;BME280_pressure;Samples;Min_cycle;Max_cycle;Signal;HPM_P1;HPM_P2
2022/09/13 00:00:20;;;;;;;6.13;2.07;;;11.80;99.90;;;;;;5011507;28;20073;-47
2022/09/13 00:02:46;;;;;;;3.57;2.20;;;11.80;99.90;;;;;;5013124;28;20309;-47
2022/09/13 00:05:13;;;;;;;7.80;2.23;;;11.70;99.90;;;;;;5012544;28;20383;-47
2022/09/13 00:07:40;;;;;;;3.80;1.90;;;11.70;99.90;;;;;;5011190;28;20880;-48
2022/09/13 00:10:06;;;;;;;3.90;2.10;;;11.70;99.90;;;;;;5012765;28;20466;-48
2022/09/13 00:12:33;;;;;;;3.05;1.80;;;11.70;99.90;;;;;;5012957;28;20312;-48
2022/09/13 00:15:00;;;;;;;3.13;1.95;;;11.60;99.90;;;;;;5012432;28;20125;-47
2022/09/13 00:17:27;;;;;;;7.53;2.53;;;11.60;99.90;;;;;;5009805;28;20078;-49
2022/09/13 00:19:53;;;;;;;2.88;1.75;;;11.60;99.90;;;;;;5012679;28;20554;-50
2022/09/13 00:22:20;;;;;;;6.15;2.38;;;11.60;99.90;;;;;;5012289;28;20073;-47
2022/09/13 00:24:47;;;;;;;4.05;2.15;;;11.50;99.90;;;;;;5011596;28;20072;-49
2022/09/13 00:27:13;;;;;;;4.95;2.55;;;11.50;99.90;;;;;;4995074;28;20081;-47
2022/09/13 00:29:40;;;;;;;3.25;2.35;;;11.50;99.90;;;;;;5008864;28;20092;-50
2022/09/13 00:32:07;;;;;;;7.37;2.87;;;11.50;99.90;;;;;;5008528;28;20073;-47
2022/09/13 00:34:33;;;;;;;6.57;2.67;;;11.60;99.90;;;;;;5022541;28;20371;-47
2022/09/13 00:37:01;;;;;;;5.17;2.70;;;11.60;99.90;;;;;;5031264;28;20349;-47
2022/09/13 00:39:27;;;;;;;4.10;2.63;;;11.60;99.90;;;;;;5025758;28;20347;-46
2022/09/13 00:41:54;;;;;;;3.73;2.50;;;11.60;99.90;;;;;;5007685;28;20459;-48
2022/09/13 00:44:46;;;;;;;4.03;2.08;;;11.50;99.90;;;;;;5005464;28;20337;-47
2022/09/13 00:47:18;;;;;;;4.25;1.83;;;11.50;99.90;;;;;;5031466;28;20154;-50
2022/09/13 00:49:47;;;;;;;3.65;2.03;;;11.40;99.90;;;;;;5031362;28;20124;-47
2022/09/13 00:52:19;;;;;;;4.97;1.98;;;11.30;99.90;;;;;;5031903;28;20084;-48
2022/09/13 00:54:53;;;;;;;5.40;2.10;;;11.20;99.90;;;;;;5014941;28;20072;-48
2022/09/13 00:57:22;;;;;;;3.75;2.40;;;11.20;99.90;;;;;;5008769;28;20085;-49
2022/09/13 00:59:59;;;;;;;6.72;2.55;;;11.20;99.90;;;;;;5026186;28;20624;-51
2022/09/13 01:02:27;;;;;;;4.10;2.53;;;11.30;99.90;;;;;;5029239;28;21329;-49
2022/09/13 01:04:55;;;;;;;4.20;2.75;;;11.30;99.90;;;;;;5025748;28;20037;-48
2022/09/13 01:07:21;;;;;;;;;;;11.30;99.90;;;;;;5029291;28;20467;-50
2022/09/13 01:09:50;;;;;;;3.50;2.20;;;11.30;99.90;;;;;;5029694;28;19956;-48
2022/09/13 01:12:45;;;;;;;5.00;2.33;;;11.30;99.90;;;;;;5029326;28;20141;-47
2022/09/13 01:15:12;;;;;;;3.47;2.55;;;11.30;99.90;;;;;;5030130;28;20077;-49
2022/09/13 01:17:39;;;;;;;5.32;2.40;;;11.30;99.90;;;;;;5013072;28;20145;-49
2022/09/13 01:20:08;;;;;;;5.85;2.70;;;11.30;99.90;;;;;;5025132;28;20056;-48
2022/09/13 01:23:05;;;;;;;4.10;2.92;;;11.20;99.90;;;;;;5012448;28;20120;-50
2022/09/13 01:25:55;;;;;;;5.68;2.35;;;11.20;99.90;;;;;;5006404;28;20045;-48
2022/09/13 01:28:53;;;;;;;3.83;2.75;;;11.30;99.90;;;;;;5019001;28;20491;-49
2022/09/13 01:31:41;;;;;;;5.55;2.60;;;11.30;99.90;;;;;;5019581;28;20069;-50
2022/09/13 01:34:09;;;;;;;6.03;2.45;;;11.30;99.90;;;;;;5024274;28;20076;-50
2022/09/13 01:37:02;;;;;;;14.25;2.95;;;11.30;99.90;;;;;;5013351;28;20072;-48
2022/09/13 01:39:38;;;;;;;4.57;2.40;;;11.30;99.90;;;;;;5018913;28;20053;-47
2022/09/13 01:42:13;;;;;;;3.92;2.78;;;11.30;99.90;;;;;;5011511;28;20084;-46
2022/09/13 01:44:58;;;;;;;8.48;2.63;;;11.30;99.90;;;;;;5029923;28;20569;-47
2022/09/13 01:47:37;;;;;;;4.80;3.08;;;11.30;99.90;;;;;;5016902;28;20073;-48
2022/09/13 01:50:11;;;;;;;6.25;2.83;;;11.30;99.90;;;;;;5023368;28;20120;-47
2022/09/13 01:52:49;;;;;;;5.00;2.78;;;11.30;99.90;;;;;;5013279;28;20029;-47
2022/09/13 01:55:48;;;;;;;5.88;2.80;;;11.30;99.90;;;;;;5020193;28;20069;-49
2022/09/13 01:58:52;;;;;;;4.88;2.85;;;11.20;99.90;;;;;;5023614;28;20571;-49
2022/09/13 02:01:54;;;;;;;7.00;2.33;;;11.10;99.90;;;;;;4943561;29;20492;-48
2022/09/13 02:04:31;;;;;;;5.25;2.80;;;11.10;99.90;;;;;;5008470;28;20572;-48
2022/09/13 02:07:04;;;;;;;6.00;3.55;;;10.90;99.90;;;;;;5054486;22;20362;-44
2022/09/13 02:09:38;;;;;;;4.22;2.65;;;11.00;99.90;;;;;;5067463;28;20443;-45
2022/09/13 02:12:19;;;;;;;4.80;3.25;;;11.00;99.90;;;;;;5062404;28;20036;-45
2022/09/13 02:14:55;;;;;;;4.53;2.97;;;11.00;99.90;;;;;;5069514;28;20049;-44
2022/09/13 02:17:24;;;;;;;4.50;2.72;;;11.00;99.90;;;;;;5052022;28;20470;-44
2022/09/13 02:20:01;;;;;;;4.22;2.38;;;11.00;99.90;;;;;;5050034;28;20132;-45
2022/09/13 02:22:33;;;;;;;4.35;2.58;;;11.00;99.90;;;;;;5050754;28;20064;-44
2022/09/13 02:25:08;;;;;;;4.05;2.90;;;11.00;99.90;;;;;;5049748;28;20131;-44
2022/09/13 02:27:38;;;;;;;7.13;3.00;;;11.00;99.90;;;;;;5075194;28;20068;-44
2022/09/13 02:30:08;;;;;;;5.28;2.67;;;11.00;99.90;;;;;;5090095;28;20072;-44
2022/09/13 02:32:51;;;;;;;3.75;2.50;;;11.00;99.90;;;;;;5090967;28;20075;-44
2022/09/13 02:35:30;;;;;;;4.30;2.53;;;11.10;99.90;;;;;;5068001;28;20048;-44
2022/09/13 02:38:03;;;;;;;4.63;2.63;;;11.00;99.90;;;;;;5064982;28;20085;-44
2022/09/13 02:40:38;;;;;;;4.32;2.72;;;10.90;99.90;;;;;;5050766;28;20094;-44
2022/09/13 02:43:14;;;;;;;5.15;2.40;;;11.00;99.90;;;;;;5050319;28;20136;-44
2022/09/13 02:45:50;;;;;;;3.85;2.58;;;11.00;99.90;;;;;;5043629;28;20477;-45
2022/09/13 02:48:30;;;;;;;4.53;2.72;;;11.00;99.90;;;;;;5086356;28;20078;-44
2022/09/13 02:51:28;;;;;;;6.18;3.28;;;11.00;99.90;;;;;;5090831;28;20127;-44
2022/09/13 02:54:05;;;;;;;6.35;3.05;;;10.90;99.90;;;;;;5066825;28;20087;-44
2022/09/13 02:56:43;;;;;;;5.93;3.00;;;10.90;99.90;;;;;;5062653;28;20404;-44
2022/09/13 02:59:22;;;;;;;5.28;3.00;;;10.80;99.90;;;;;;5054148;28;20037;-44
2022/09/13 03:02:10;;;;;;;6.40;2.83;;;10.80;99.90;;;;;;5053659;28;20120;-44
2022/09/13 03:04:36;;;;;;;4.45;2.92;;;10.80;99.90;;;;;;5052499;28;20052;-44
2022/09/13 03:07:09;;;;;;;5.15;2.97;;;10.70;99.90;;;;;;5053922;28;20413;-44
2022/09/13 03:09:36;;;;;;;4.88;2.72;;;10.70;99.90;;;;;;5069523;28;20064;-44
2022/09/13 03:12:21;;;;;;;;;;;10.70;99.90;;;;;;5057066;28;20115;-44
2022/09/13 03:15:29;;;;;;;5.20;2.63;;;10.70;99.90;;;;;;5053537;28;19964;-44
2022/09/13 03:18:21;;;;;;;3.75;2.33;;;10.70;99.90;;;;;;5028586;28;20675;-44
2022/09/13 03:21:13;;;;;;;5.40;3.00;;;10.70;99.90;;;;;;5076730;28;20552;-44
2022/09/13 03:24:05;;;;;;;3.97;2.60;;;10.70;99.90;;;;;;5073994;28;20139;-44
2022/09/13 03:26:43;;;;;;;10.25;3.80;;;10.70;99.90;;;;;;5065189;28;20067;-44
2022/09/13 03:29:17;;;;;;;;;;;10.70;99.90;;;;;;5072191;28;20079;-45
2022/09/13 03:32:14;;;;;;;6.90;2.60;;;10.70;99.90;;;;;;5067947;28;19926;-45
2022/09/13 03:35:01;;;;;;;5.15;2.40;;;10.70;99.90;;;;;;5052468;28;20072;-44
2022/09/13 03:37:28;;;;;;;3.30;2.50;;;10.70;99.90;;;;;;5055002;28;20110;-45
2022/09/13 03:40:32;;;;;;;5.03;2.53;;;10.70;99.90;;;;;;5057926;28;20567;-45
2022/09/13 03:43:01;;;;;;;4.68;2.38;;;10.70;99.90;;;;;;5053717;28;20065;-44
2022/09/13 03:45:32;;;;;;;3.58;2.67;;;10.60;99.90;;;;;;5070904;28;20457;-44
2022/09/13 03:48:01;;;;;;;6.93;2.50;;;10.60;99.90;;;;;;5054706;28;20068;-44
2022/09/13 03:50:28;;;;;;;6.50;3.85;;;10.70;99.90;;;;;;5061498;28;20047;-44
2022/09/13 03:53:09;;;;;;;4.32;2.47;;;10.80;99.90;;;;;;5072255;28;20045;-44
2022/09/13 03:55:40;;;;;;;3.90;2.42;;;10.80;99.90;;;;;;5067415;28;20040;-44
2022/09/13 03:58:13;;;;;;;4.32;1.90;;;10.80;99.90;;;;;;5069065;28;20119;-45
2022/09/13 04:00:40;;;;;;;6.57;3.30;;;10.80;99.90;;;;;;5058355;28;20545;-45
2022/09/13 04:03:08;;;;;;;3.53;2.08;;;10.80;99.90;;;;;;5072819;28;20131;-46
2022/09/13 04:05:34;;;;;;;3.75;2.58;;;10.80;99.90;;;;;;5069011;28;20087;-44
2022/09/13 04:08:04;;;;;;;3.20;2.15;;;10.80;99.90;;;;;;5071581;28;20103;-46
2022/09/13 04:10:32;;;;;;;4.03;2.55;;;10.80;99.90;;;;;;5063887;28;20505;-44
2022/09/13 04:12:59;;;;;;;4.45;2.60;;;10.70;99.90;;;;;;5064055;28;20119;-45
2022/09/13 04:15:27;;;;;;;4.95;2.80;;;10.60;99.90;;;;;;5054087;28;20047;-44
2022/09/13 04:17:53;;;;;;;3.80;2.22;;;10.60;99.90;;;;;;5064169;28;20127;-45
2022/09/13 04:20:20;;;;;;;3.13;1.98;;;10.60;99.90;;;;;;5063185;28;20094;-45
2022/09/13 04:22:55;;;;;;;4.22;2.50;;;10.50;99.90;;;;;;5061237;28;20064;-44
2022/09/13 04:25:22;;;;;;;6.57;2.33;;;10.50;99.90;;;;;;5060942;28;20120;-46
2022/09/13 04:27:57;;;;;;;5.40;2.40;;;10.40;99.90;;;;;;5063464;28;20072;-44
2022/09/13 04:30:23;;;;;;;3.58;2.20;;;10.40;99.90;;;;;;5047787;28;20068;-44
2022/09/13 04:32:50;;;;;;;4.85;2.42;;;10.40;99.90;;;;;;5071131;28;20071;-45
2022/09/13 04:35:18;;;;;;;4.82;2.70;;;10.40;99.90;;;;;;5070490;28;20120;-45
2022/09/13 04:37:45;;;;;;;2.80;2.10;;;10.40;99.90;;;;;;5068651;28;20076;-44
2022/09/13 04:40:12;;;;;;;4.63;2.78;;;10.40;99.90;;;;;;5064143;28;20493;-44
2022/09/13 04:42:39;;;;;;;7.80;2.70;;;10.40;99.90;;;;;;5052978;28;20045;-45
2022/09/13 04:45:07;;;;;;;5.03;2.25;;;10.40;99.90;;;;;;5057203;28;20553;-45
2022/09/13 04:47:33;;;;;;;;;;;10.40;99.90;;;;;;5059815;28;20041;-45
2022/09/13 04:50:00;;;;;;;7.25;2.60;;;10.40;99.90;;;;;;5063232;28;19927;-45
2022/09/13 04:52:27;;;;;;;3.92;2.50;;;10.40;99.90;;;;;;5060633;28;20095;-46
2022/09/13 04:54:54;;;;;;;3.53;2.42;;;10.40;99.90;;;;;;5047190;28;20068;-45
2022/09/13 04:57:21;;;;;;;5.55;2.80;;;10.40;99.90;;;;;;5059393;28;20559;-45
2022/09/13 04:59:48;;;;;;;6.53;2.72;;;10.30;99.90;;;;;;5032238;28;20076;-45
2022/09/13 05:02:14;;;;;;;6.60;2.38;;;10.30;99.90;;;;;;5058675;28;20099;-45
2022/09/13 05:04:41;;;;;;;5.63;2.05;;;10.30;99.90;;;;;;5077279;28;20035;-44
2022/09/13 05:07:08;;;;;;;3.30;1.85;;;10.40;99.90;;;;;;5091085;28;20416;-44
2022/09/13 05:09:35;;;;;;;5.53;3.13;;;10.30;99.90;;;;;;5077460;28;20064;-44
2022/09/13 05:12:02;;;;;;;6.17;2.77;;;10.40;99.90;;;;;;5055647;28;20530;-45
2022/09/13 05:14:29;;;;;;;6.07;2.78;;;10.40;99.90;;;;;;5051118;28;20367;-44
2022/09/13 05:16:55;;;;;;;3.67;2.47;;;10.40;99.90;;;;;;5056130;28;20135;-44
2022/09/13 05:19:22;;;;;;;6.35;2.42;;;10.30;99.90;;;;;;5056598;28;20483;-44
2022/09/13 05:21:49;;;;;;;5.80;2.63;;;10.30;99.90;;;;;;5050741;28;20112;-44
2022/09/13 05:24:16;;;;;;;4.72;2.65;;;10.30;99.90;;;;;;5049270;28;20527;-44
2022/09/13 05:26:42;;;;;;;3.85;2.75;;;10.30;99.90;;;;;;5058925;28;20224;-45
2022/09/13 05:29:09;;;;;;;7.20;3.13;;;10.40;99.90;;;;;;5051671;28;20124;-45
2022/09/13 05:31:38;;;;;;;3.50;2.35;;;10.40;99.90;;;;;;5069161;28;20119;-44
2022/09/13 05:34:09;;;;;;;4.00;2.80;;;10.40;99.90;;;;;;5069957;28;20054;-44
2022/09/13 05:36:36;;;;;;;8.25;2.88;;;10.40;99.90;;;;;;5057747;28;20083;-45
2022/09/13 05:39:04;;;;;;;5.53;2.55;;;10.40;99.90;;;;;;5054273;28;20082;-44
2022/09/13 05:41:50;;;;;;;4.38;2.65;;;10.40;99.90;;;;;;5061518;28;20044;-45
2022/09/13 05:44:17;;;;;;;5.50;2.65;;;10.50;99.90;;;;;;5032949;28;20132;-44
2022/09/13 05:46:47;;;;;;;5.30;2.53;;;10.50;99.90;;;;;;5055093;28;20112;-44
2022/09/13 05:49:14;;;;;;;6.18;2.80;;;10.40;99.90;;;;;;5076110;28;20119;-45
2022/09/13 05:51:41;;;;;;;7.22;2.53;;;10.50;99.90;;;;;;5050864;28;20438;-45
2022/09/13 05:54:11;;;;;;;4.60;2.65;;;10.50;99.90;;;;;;5054036;28;20064;-44
2022/09/13 05:56:38;;;;;;;6.18;3.38;;;10.50;99.90;;;;;;5062507;28;20040;-44
2022/09/13 05:59:05;;;;;;;8.35;2.70;;;10.60;99.90;;;;;;5069528;28;20566;-44
2022/09/13 06:01:31;;;;;;;8.68;2.35;;;10.60;99.90;;;;;;5071083;28;20122;-45
2022/09/13 06:03:59;;;;;;;4.30;2.60;;;10.50;99.90;;;;;;5062510;28;20500;-44
2022/09/13 06:06:26;;;;;;;;;;;10.70;99.90;;;;;;5052884;28;20132;-44
2022/09/13 06:08:56;;;;;;;8.07;2.63;;;10.70;99.90;;;;;;5050813;28;20023;-44
2022/09/13 06:11:24;;;;;;;5.00;2.60;;;10.70;99.90;;;;;;5050707;28;20106;-44
2022/09/13 06:13:52;;;;;;;5.75;2.63;;;10.70;99.90;;;;;;5050693;28;20341;-44
2022/09/13 06:16:19;;;;;;;2.92;2.15;;;10.80;99.90;;;;;;5087351;28;20170;-44
2022/09/13 06:18:46;;;;;;;;;;;10.80;99.90;;;;;;5091245;28;20056;-44
2022/09/13 06:21:21;;;;;;;4.70;2.50;;;10.90;99.90;;;;;;5082018;28;20055;-44
2022/09/13 06:23:54;;;;;;;5.47;2.88;;;10.90;99.90;;;;;;5079499;28;20505;-44
2022/09/13 06:26:23;;;;;;;10.75;2.67;;;11.00;99.90;;;;;;5080228;28;20075;-44
2022/09/13 06:28:52;;;;;;;8.40;2.60;;;11.10;99.90;;;;;;5050172;28;20116;-44
2022/09/13 06:31:22;;;;;;;6.57;2.58;;;11.10;99.90;;;;;;5052502;28;20094;-44
2022/09/13 06:33:53;;;;;;;6.45;3.00;;;11.20;99.90;;;;;;5054052;28;20036;-45
2022/09/13 06:36:20;;;;;;;3.65;2.63;;;11.20;99.90;;;;;;5053100;28;20091;-44
2022/09/13 06:38:47;;;;;;;5.88;3.03;;;11.30;99.90;;;;;;5059007;28;20076;-44
2022/09/13 06:41:19;;;;;;;4.47;2.55;;;11.40;99.90;;;;;;5053602;28;20045;-45
2022/09/13 06:43:46;;;;;;;6.70;2.30;;;11.60;99.90;;;;;;5054089;28;20048;-45
2022/09/13 06:46:15;;;;;;;;;;;11.70;99.90;;;;;;5054724;28;20075;-44
2022/09/13 06:48:43;;;;;;;6.75;2.55;;;11.90;99.90;;;;;;5054315;28;19928;-44
2022/09/13 06:51:16;;;;;;;3.33;2.30;;;12.00;99.90;;;;;;5053278;28;20456;-44
2022/09/13 06:53:44;;;;;;;6.15;2.22;;;12.10;99.90;;;;;;5058490;28;20120;-44
2022/09/13 06:56:12;;;;;;;4.50;2.50;;;12.20;99.90;;;;;;5088488;28;20114;-46
2022/09/13 06:58:40;;;;;;;3.97;2.60;;;12.40;99.90;;;;;;5093451;28;20467;-45
2022/09/13 07:01:34;;;;;;;5.97;2.15;;;12.50;99.90;;;;;;5078535;28;20055;-46
2022/09/13 07:04:07;;;;;;;4.78;2.20;;;12.60;99.90;;;;;;5061464;28;20127;-44
2022/09/13 07:06:46;;;;;;;4.72;2.10;;;12.80;99.90;;;;;;5072655;28;20403;-45
2022/09/13 07:09:17;;;;;;;7.22;2.63;;;12.70;99.90;;;;;;5064630;28;20044;-45
2022/09/13 07:11:45;;;;;;;3.67;2.30;;;12.90;99.90;;;;;;5069301;28;20029;-44
2022/09/13 07:14:24;;;;;;;3.35;2.20;;;12.90;99.90;;;;;;5046310;28;20064;-44
2022/09/13 07:16:52;;;;;;;5.65;2.10;;;13.10;99.90;;;;;;5067299;28;20075;-44
2022/09/13 07:19:26;;;;;;;3.90;2.47;;;13.20;99.90;;;;;;5054430;28;20076;-45
2022/09/13 07:21:54;;;;;;;5.78;1.98;;;13.30;99.90;;;;;;5071826;28;20036;-45
2022/09/13 07:24:22;;;;;;;4.25;2.28;;;13.60;99.90;;;;;;5079264;28;20087;-45
2022/09/13 07:26:49;;;;;;;2.78;2.00;;;13.60;99.90;;;;;;5072979;28;20078;-45
2022/09/13 07:29:21;;;;;;;5.13;2.25;;;13.80;99.90;;;;;;5073468;28;20048;-44
2022/09/13 07:31:50;;;;;;;2.13;1.67;;;13.90;99.90;;;;;;5068027;28;20045;-44
2022/09/13 07:34:24;;;;;;;3.72;2.13;;;14.00;99.90;;;;;;5065706;28;20131;-45
2022/09/13 07:36:51;;;;;;;4.68;2.00;;;14.00;99.90;;;;;;5058160;28;20516;-44
2022/09/13 07:39:18;;;;;;;6.38;1.80;;;14.10;99.90;;;;;;5052683;28;20033;-44
2022/09/13 07:41:49;;;;;;;3.17;2.10;;;14.20;99.90;;;;;;5058769;28;20119;-45
2022/09/13 07:44:15;;;;;;;2.53;1.90;;;14.30;99.90;;;;;;5050908;28;20213;-44
2022/09/13 07:46:42;;;;;;;5.30;2.05;;;14.40;99.90;;;;;;5058588;28;20119;-44
2022/09/13 07:49:16;;;;;;;5.55;2.30;;;14.60;99.90;;;;;;5060321;28;20079;-45
2022/09/13 07:51:43;;;;;;;5.13;2.10;;;14.80;99.90;;;;;;5079043;28;20115;-44
2022/09/13 07:54:14;;;;;;;;;;;14.90;99.90;;;;;;5093097;28;20068;-45
2022/09/13 07:56:41;;;;;;;3.65;1.80;;;15.00;99.90;;;;;;5089686;28;19934;-45
2022/09/13 07:59:14;;;;;;;3.95;2.10;;;15.10;99.90;;;;;;5064067;28;20086;-45
2022/09/13 08:01:42;;;;;;;5.22;1.83;;;15.20;99.90;;;;;;5053183;28;20068;-45
2022/09/13 08:04:16;;;;;;;2.97;1.70;;;15.20;99.90;;;;;;5051365;28;20051;-45
2022/09/13 08:06:45;;;;;;;4.45;2.00;;;15.40;99.90;;;;;;5066504;22;20055;-46
2022/09/13 08:09:37;;;;;;;6.35;2.53;;;15.60;99.90;;;;;;5043208;28;20382;-49
2022/09/13 08:12:10;;;;;;;1.80;1.42;;;15.70;99.90;;;;;;5040752;28;20467;-47
2022/09/13 08:14:37;;;;;;;3.80;1.85;;;15.80;99.90;;;;;;5040672;28;20041;-45
2022/09/13 08:17:03;;;;;;;5.22;1.42;;;15.90;99.90;;;;;;5072212;28;20127;-46
2022/09/13 08:19:30;;;;;;;6.00;1.70;;;16.00;99.90;;;;;;5071861;28;20128;-45
2022/09/13 08:21:57;;;;;;;6.90;1.63;;;16.20;99.90;;;;;;5066362;28;20107;-45
2022/09/13 08:24:23;;;;;;;4.22;1.27;;;16.20;99.90;;;;;;5046216;28;20072;-45
2022/09/13 08:26:53;;;;;;;3.53;1.35;;;16.30;99.90;;;;;;5045563;28;20042;-46
2022/09/13 08:29:20;;;;;;;6.85;1.45;;;16.40;99.90;;;;;;5069360;28;20048;-45
2022/09/13 08:31:47;;;;;;;4.07;1.23;;;16.50;99.90;;;;;;5067160;28;20070;-45
2022/09/13 08:34:14;;;;;;;1.65;1.35;;;16.30;99.90;;;;;;5067128;28;20079;-46
2022/09/13 08:36:42;;;;;;;2.15;1.08;;;16.50;99.90;;;;;;5071234;28;20103;-46
2022/09/13 08:39:12;;;;;;;3.10;1.52;;;16.60;99.90;;;;;;5072222;28;20083;-45
2022/09/13 08:41:39;;;;;;;3.13;1.42;;;16.70;99.90;;;;;;5056141;28;20500;-45
2022/09/13 08:44:18;;;;;;;3.08;1.17;;;16.90;99.90;;;;;;5051611;28;20280;-45
2022/09/13 08:46:45;;;;;;;7.70;1.20;;;17.00;99.90;;;;;;5049679;28;20123;-45
2022/09/13 08:49:17;;;;;;;1.60;1.40;;;17.20;99.90;;;;;;5045842;28;20588;-48
2022/09/13 08:51:50;;;;;;;1.90;1.42;;;17.50;99.90;;;;;;5050958;28;20041;-45
2022/09/13 08:54:19;;;;;;;2.97;1.23;;;17.70;99.90;;;;;;5047904;28;20041;-46
2022/09/13 08:57:03;;;;;;;5.82;1.27;;;18.00;99.90;;;;;;5045242;28;20076;-45
2022/09/13 08:59:46;;;;;;;2.25;1.10;;;18.10;99.90;;;;;;5048211;28;20390;-47
2022/09/13 09:02:36;;;;;;;5.60;0.98;;;18.10;99.90;;;;;;5049036;28;20072;-45
2022/09/13 09:05:17;;;;;;;6.03;1.30;;;18.20;99.90;;;;;;5050137;28;20087;-46
2022/09/13 09:07:52;;;;;;;3.33;1.02;;;18.30;99.90;;;;;;5051264;28;20075;-45
2022/09/13 09:10:32;;;;;;;6.85;1.23;;;18.20;99.90;;;;;;5051196;28;20076;-45
2022/09/13 09:13:07;;;;;;;2.45;1.20;;;18.30;99.90;;;;;;5028011;28;20128;-45
2022/09/13 09:15:39;;;;;;;1.98;1.20;;;18.40;99.90;;;;;;5055577;28;20040;-45
2022/09/13 09:18:17;;;;;;;2.42;1.20;;;18.50;99.90;;;;;;5060021;28;20037;-46
2022/09/13 09:20:49;;;;;;;2.20;1.00;;;18.60;99.90;;;;;;5044865;28;20091;-46
2022/09/13 09:23:39;;;;;;;3.25;1.20;;;18.70;99.90;;;;;;5050502;28;20068;-46
2022/09/13 09:26:18;;;;;;;2.63;1.27;;;18.90;99.90;;;;;;5051262;28;20045;-46
2022/09/13 09:29:07;;;;;;;3.85;1.05;;;19.00;99.90;;;;;;5051155;28;20060;-46
2022/09/13 09:31:37;;;;;;;1.92;0.98;;;19.10;99.90;;;;;;5029485;28;20132;-46
2022/09/13 09:34:22;;;;;;;1.10;0.88;;;19.30;99.90;;;;;;5050692;28;20079;-46
2022/09/13 09:36:53;;;;;;;1.88;0.90;;;19.50;99.90;;;;;;5048865;28;20132;-46
2022/09/13 09:39:20;;;;;;;2.22;0.93;;;19.80;99.90;;;;;;5051286;28;20072;-46
2022/09/13 09:41:47;;;;;;;1.55;1.10;;;20.00;99.90;;;;;;5032731;28;20472;-46
2022/09/13 09:44:22;;;;;;;3.38;1.10;;;20.00;99.90;;;;;;5046111;28;20509;-46
2022/09/13 09:47:17;;;;;;;2.50;1.15;;;20.10;99.90;;;;;;5071155;28;20040;-45
2022/09/13 09:50:09;;;;;;;3.03;1.00;;;20.10;99.90;;;;;;5067817;28;20061;-45
2022/09/13 09:53:02;;;;;;;5.25;1.70;;;19.90;99.90;;;;;;5057743;28;20037;-45
2022/09/13 09:55:38;;;;;;;2.15;1.17;;;19.70;99.90;;;;;;5050635;28;20541;-45
2022/09/13 09:58:07;;;;;;;7.32;2.17;;;19.70;99.90;;;;;;5049757;28;20112;-46
2022/09/13 10:00:55;;;;;;;6.35;1.27;;;19.90;99.90;;;;;;5045503;28;20044;-48
2022/09/13 10:03:27;;;;;;;;;;;20.00;99.90;;;;;;5050432;28;20135;-45
2022/09/13 10:06:08;;;;;;;4.07;1.10;;;19.90;99.90;;;;;;5049986;28;19967;-46
2022/09/13 10:08:38;;;;;;;2.55;1.10;;;20.00;99.90;;;;;;5036147;28;20116;-46
2022/09/13 10:11:06;;;;;;;3.95;1.35;;;20.00;99.90;;;;;;5051359;28;20120;-51
2022/09/13 10:13:33;;;;;;;3.20;0.90;;;20.10;99.90;;;;;;5054396;28;20465;-46
2022/09/13 10:16:04;;;;;;;;;;;20.00;99.90;;;;;;5055258;28;20079;-46
2022/09/13 10:18:33;;;;;;;3.65;0.93;;;20.00;99.90;;;;;;5047946;28;20381;-47
2022/09/13 10:21:18;;;;;;;1.77;0.80;;;20.00;99.90;;;;;;5054777;28;20049;-45
2022/09/13 10:23:47;;;;;;;1.30;0.80;;;20.00;99.90;;;;;;5048717;28;20073;-45
2022/09/13 10:26:20;;;;;;;5.15;1.00;;;19.90;99.90;;;;;;5054704;28;20072;-46
2022/09/13 10:28:58;;;;;;;1.35;1.05;;;19.90;99.90;;;;;;5054010;28;20041;-46
2022/09/13 10:31:35;;;;;;;2.58;0.80;;;20.00;99.90;;;;;;5054365;28;20482;-48
2022/09/13 10:34:12;;;;;;;1.08;0.80;;;20.20;99.90;;;;;;5053771;28;20092;-46
2022/09/13 10:36:56;;;;;;;2.17;1.03;;;20.50;99.90;;;;;;5054187;28;20103;-46
2022/09/13 10:39:24;;;;;;;1.30;0.95;;;20.60;99.90;;;;;;5054249;28;20551;-46
2022/09/13 10:42:02;;;;;;;2.30;0.70;;;20.60;99.90;;;;;;5047735;28;20076;-46
2022/09/13 10:44:43;;;;;;;4.10;1.05;;;20.70;99.90;;;;;;5055922;28;20489;-46
2022/09/13 10:47:17;;;;;;;0.82;0.80;;;20.90;99.90;;;;;;5048869;28;20116;-48
2022/09/13 10:49:49;;;;;;;4.38;0.90;;;20.90;99.90;;;;;;5052690;28;20029;-48
2022/09/13 10:52:44;;;;;;;0.93;0.80;;;21.20;99.90;;;;;;5052314;28;20091;-46
2022/09/13 10:55:17;;;;;;;2.70;1.20;;;21.40;99.90;;;;;;5052195;28;20116;-47
2022/09/13 10:57:46;;;;;;;0.95;0.90;;;21.50;99.90;;;;;;5052521;28;20088;-46
2022/09/13 11:00:19;;;;;;;5.82;1.20;;;21.50;99.90;;;;;;5047364;28;20073;-45
2022/09/13 11:03:23;;;;;;;3.60;0.93;;;21.40;99.90;;;;;;5065823;28;20436;-46
2022/09/13 11:06:16;;;;;;;1.73;1.20;;;21.40;99.90;;;;;;5071763;28;20496;-46
2022/09/13 11:08:54;;;;;;;1.30;0.90;;;21.40;99.90;;;;;;5059958;28;20041;-45
2022/09/13 11:11:39;;;;;;;2.50;1.02;;;21.40;99.90;;;;;;5072646;28;20045;-46
2022/09/13 11:14:39;;;;;;;1.73;0.90;;;21.40;99.90;;;;;;5049830;28;20068;-47
2022/09/13 11:17:18;;;;;;;3.05;1.05;;;21.40;99.90;;;;;;5050126;28;20485;-48
2022/09/13 11:20:16;;;;;;;1.40;0.70;;;21.40;99.90;;;;;;5050542;28;20120;-46
2022/09/13 11:22:49;;;;;;;;;;;21.50;99.90;;;;;;5050135;28;20073;-46
2022/09/13 11:25:31;;;;;;;2.85;1.38;;;21.60;99.90;;;;;;5050903;28;19920;-46
2022/09/13 11:28:40;;;;;;;1.70;1.00;;;21.70;99.90;;;;;;5046427;28;20548;-46
2022/09/13 11:31:30;;;;;;;5.30;1.17;;;21.80;99.90;;;;;;5052682;28;20323;-45
2022/09/13 11:34:08;;;;;;;1.48;0.88;;;21.70;99.90;;;;;;5048312;28;20072;-47
2022/09/13 11:36:53;;;;;;;;;;;21.60;99.90;;;;;;5054031;28;20137;-46
2022/09/13 11:39:22;;;;;;;1.60;0.93;;;21.60;99.90;;;;;;5049118;28;19972;-47
2022/09/13 11:42:04;;;;;;;2.30;1.17;;;21.60;99.90;;;;;;5053165;28;20513;-48
2022/09/13 11:45:11;;;;;;;2.92;1.30;;;21.80;99.90;;;;;;5052284;28;20045;-46
2022/09/13 11:48:11;;;;;;;1.38;0.90;;;22.10;99.90;;;;;;5052356;28;20064;-46
2022/09/13 11:50:56;;;;;;;1.23;1.10;;;22.20;99.90;;;;;;5045757;28;20098;-46
2022/09/13 11:53:38;;;;;;;6.78;1.20;;;22.10;99.90;;;;;;5052699;28;20075;-46
2022/09/13 11:56:15;;;;;;;1.75;0.90;;;22.10;99.90;;;;;;5053158;28;20037;-45
2022/09/13 11:58:48;;;;;;;6.95;0.98;;;22.20;99.90;;;;;;5051851;28;20068;-46
2022/09/13 12:01:34;;;;;;;2.47;0.65;;;22.30;99.90;;;;;;5052563;28;20585;-45
2022/09/13 12:04:23;;;;;;;1.88;1.10;;;22.50;99.90;;;;;;5048244;28;20087;-45
2022/09/13 12:06:58;;;;;;;4.03;0.98;;;22.50;99.90;;;;;;5051893;28;20049;-45
2022/09/13 12:09:29;;;;;;;7.05;0.85;;;22.60;99.90;;;;;;5052879;28;20119;-46
2022/09/13 12:12:14;;;;;;;0.57;0.57;;;22.70;99.90;;;;;;5051504;28;20087;-47
2022/09/13 12:14:51;;;;;;;5.10;0.80;;;22.90;99.90;;;;;;5031730;28;20080;-47
2022/09/13 12:17:25;;;;;;;5.10;0.88;;;23.10;99.90;;;;;;5044579;28;20468;-45
2022/09/13 12:19:56;;;;;;;4.60;1.10;;;23.30;99.90;;;;;;5051877;28;20497;-46
2022/09/13 12:22:26;;;;;;;1.98;1.00;;;23.30;99.90;;;;;;5052058;28;20065;-45
2022/09/13 12:24:59;;;;;;;2.53;0.93;;;23.50;99.90;;;;;;5041576;28;20486;-46
2022/09/13 12:28:18;;;;;;;1.45;0.90;;;23.50;99.90;;;;;;5051757;28;20064;-46
2022/09/13 12:30:51;;;;;;;1.60;1.13;;;23.60;99.90;;;;;;4997127;28;20124;-46
2022/09/13 12:33:18;;;;;;;1.40;0.75;;;23.90;99.90;;;;;;5048435;28;20121;-47
2022/09/13 12:36:25;;;;;;;2.47;0.90;;;23.90;99.90;;;;;;5051725;28;20375;-45
2022/09/13 12:38:54;;;;;;;0.80;0.73;;;23.80;99.90;;;;;;5051969;28;20075;-47
2022/09/13 12:41:48;;;;;;;1.35;0.93;;;23.60;99.90;;;;;;5052222;28;20041;-48
2022/09/13 12:44:34;;;;;;;1.13;0.82;;;23.50;99.90;;;;;;5051685;28;20041;-49
2022/09/13 12:47:12;;;;;;;1.80;0.85;;;23.50;99.90;;;;;;5051593;28;20355;-49
2022/09/13 12:50:10;;;;;;;0.82;0.80;;;23.80;99.90;;;;;;5051469;28;20557;-46
2022/09/13 12:53:22;;;;;;;2.67;1.02;;;24.20;99.90;;;;;;5049043;28;20041;-47
2022/09/13 12:56:27;;;;;;;3.13;0.90;;;24.50;99.90;;;;;;5051365;28;20044;-46
2022/09/13 12:59:34;;;;;;;3.45;1.15;;;24.80;99.90;;;;;;5050959;28;20136;-45
2022/09/13 13:02:21;;;;;;;1.33;0.90;;;25.20;99.90;;;;;;5050675;28;20099;-46
2022/09/13 13:04:55;;;;;;;6.18;1.00;;;25.40;99.90;;;;;;5045799;28;20125;-46
2022/09/13 13:07:22;;;;;;;3.15;0.90;;;25.80;99.90;;;;;;5045623;28;20052;-46
2022/09/13 13:09:52;;;;;;;2.55;0.82;;;26.00;99.90;;;;;;5051739;28;20075;-46
2022/09/13 13:12:39;;;;;;;3.60;1.08;;;26.00;98.90;;;;;;5051394;28;20128;-47
2022/09/13 13:15:26;;;;;;;1.48;0.70;;;26.20;98.80;;;;;;5050948;28;20112;-46
2022/09/13 13:17:54;;;;;;;0.70;0.70;;;26.20;97.50;;;;;;5039503;28;20068;-46
2022/09/13 13:20:51;;;;;;;3.03;0.80;;;26.10;98.40;;;;;;5049891;28;20064;-49
2022/09/13 13:23:23;;;;;;;2.30;1.08;;;25.90;98.50;;;;;;5050968;28;20068;-46
2022/09/13 13:26:00;;;;;;;1.27;0.82;;;25.60;98.80;;;;;;5051533;28;20051;-47
2022/09/13 13:28:49;;;;;;;1.27;0.80;;;25.60;99.70;;;;;;5056375;28;20082;-45
2022/09/13 13:31:31;;;;;;;1.13;0.70;;;25.60;99.10;;;;;;5071047;28;20501;-46